createdAt,value
2019-05-25T00:00:54.650Z,11.92
2019-05-25T00:03:27.328Z,11.97
2019-05-25T00:06:00.059Z,11.93
2019-05-25T00:08:32.827Z,11.88
2019-05-25T00:11:05.619Z,11.90
2019-05-25T00:13:38.316Z,11.87
2019-05-25T00:16:11.055Z,11.84
2019-05-25T00:18:43.764Z,11.86
2019-05-25T00:21:16.551Z,11.89
2019-05-25T00:23:49.288Z,11.85
2019-05-25T00:26:22.026Z,11.79
2019-05-25T00:28:54.751Z,11.77
2019-05-25T00:31:27.452Z,11.76
2019-05-25T00:34:00.201Z,11.71
2019-05-25T00:36:33.045Z,11.75
2019-05-25T00:39:07.559Z,11.78
2019-05-25T00:41:40.313Z,11.76
2019-05-25T00:44:13.212Z,11.68
2019-05-25T00:46:45.973Z,11.70
2019-05-25T00:49:18.668Z,11.80
2019-05-25T00:51:51.416Z,11.82
2019-05-25T00:54:27.971Z,11.80
2019-05-25T00:56:58.661Z,11.80
2019-05-25T00:59:31.440Z,11.84
2019-05-25T01:02:04.337Z,11.84
2019-05-25T01:04:37.011Z,11.81
2019-05-25T01:07:09.759Z,11.80
2019-05-25T01:09:42.475Z,11.74
2019-05-25T01:12:15.259Z,11.67
2019-05-25T01:14:48.062Z,11.62
2019-05-25T01:17:20.906Z,11.60
2019-05-25T01:19:53.621Z,11.56
2019-05-25T01:22:26.372Z,11.55
2019-05-25T01:24:59.086Z,11.45
2019-05-25T01:27:31.746Z,11.46
2019-05-25T01:30:05.387Z,11.43
2019-05-25T01:32:38.026Z,11.31
2019-05-25T01:35:12.156Z,11.42
2019-05-25T01:37:48.330Z,11.41
2019-05-25T01:40:19.757Z,11.31
2019-05-25T01:42:52.415Z,11.26
2019-05-25T01:45:25.076Z,11.27
2019-05-25T01:47:57.665Z,11.24
2019-05-25T01:50:30.322Z,11.28
2019-05-25T01:53:02.916Z,11.22
2019-05-25T01:55:35.681Z,11.17
2019-05-25T01:58:08.531Z,11.06
2019-05-25T02:00:41.290Z,10.98
2019-05-25T02:03:13.904Z,10.95
2019-05-25T02:05:46.587Z,11.06
2019-05-25T02:08:19.347Z,11.05
2019-05-25T02:10:51.988Z,11.12
2019-05-25T02:13:24.727Z,10.99
2019-05-25T02:15:57.457Z,10.98
2019-05-25T02:18:30.104Z,10.90
2019-05-25T02:21:02.941Z,10.95
2019-05-25T02:23:35.552Z,11.00
2019-05-25T02:26:08.225Z,10.99
2019-05-25T02:28:41.274Z,10.95
2019-05-25T02:31:13.974Z,10.90
2019-05-25T02:33:46.678Z,10.89
2019-05-25T02:36:20.951Z,10.87
2019-05-25T02:38:53.877Z,10.84
2019-05-25T02:41:26.601Z,10.78
2019-05-25T02:43:59.263Z,10.74
2019-05-25T02:46:31.920Z,10.74
2019-05-25T02:49:04.756Z,10.76
2019-05-25T02:51:37.450Z,10.78
2019-05-25T02:54:10.095Z,10.74
2019-05-25T02:56:42.732Z,10.71
2019-05-25T02:59:15.526Z,10.67
2019-05-25T03:01:48.964Z,10.55
2019-05-25T03:04:22.020Z,10.45
2019-05-25T03:06:55.343Z,10.40
2019-05-25T03:09:30.813Z,10.36
2019-05-25T03:12:03.446Z,10.42
2019-05-25T03:14:36.252Z,10.48
2019-05-25T03:17:08.924Z,10.48
2019-05-25T03:19:41.598Z,10.46
2019-05-25T03:22:14.358Z,10.49
2019-05-25T03:24:47.330Z,10.46
2019-05-25T03:27:20.976Z,10.43
2019-05-25T03:29:53.602Z,10.45
2019-05-25T03:32:26.240Z,10.52
2019-05-25T03:34:59.435Z,10.58
2019-05-25T03:37:32.090Z,10.56
2019-05-25T03:40:05.987Z,10.49
2019-05-25T03:42:38.645Z,10.45
2019-05-25T03:45:12.801Z,10.36
2019-05-25T03:47:45.410Z,10.34
2019-05-25T03:50:18.512Z,10.27
2019-05-25T03:52:51.216Z,10.17
2019-05-25T03:55:23.821Z,10.15
2019-05-25T03:57:56.521Z,10.11
2019-05-25T04:00:37.989Z,10.06
2019-05-25T04:03:10.635Z,10.03
2019-05-25T04:05:43.286Z,10.06
2019-05-25T04:08:17.186Z,10.12
2019-05-25T04:10:49.803Z,10.19
2019-05-25T04:13:22.477Z,10.18
2019-05-25T04:15:55.130Z,10.09
2019-05-25T04:18:27.767Z,10.06
2019-05-25T04:21:00.408Z,10.27
2019-05-25T04:23:33.040Z,10.40
2019-05-25T04:26:19.619Z,10.60
2019-05-25T04:28:40.196Z,10.83
2019-05-25T04:31:12.927Z,11.05
2019-05-25T04:33:45.620Z,11.12
2019-05-25T04:36:18.315Z,11.27
2019-05-25T04:38:51.099Z,11.47
2019-05-25T04:41:23.961Z,11.62
2019-05-25T04:43:56.707Z,11.79
2019-05-25T04:46:29.411Z,11.86
2019-05-25T04:49:02.232Z,12.08
2019-05-25T04:51:37.564Z,12.26
2019-05-25T04:54:10.483Z,12.48
2019-05-25T04:56:43.244Z,12.78
2019-05-25T04:59:15.978Z,12.96
2019-05-25T05:01:48.803Z,13.22
2019-05-25T05:04:22.063Z,13.35
2019-05-25T05:06:54.821Z,13.64
2019-05-25T05:09:27.618Z,13.72
2019-05-25T05:12:00.417Z,13.93
2019-05-25T05:14:33.228Z,13.89
2019-05-25T05:17:06.009Z,13.85
2019-05-25T05:19:38.844Z,13.82
2019-05-25T05:22:11.804Z,13.89
2019-05-25T05:24:44.602Z,13.92
2019-05-25T05:27:17.363Z,13.99
2019-05-25T05:29:50.311Z,14.16
2019-05-25T05:32:27.476Z,14.20
2019-05-25T05:34:57.611Z,14.32
2019-05-25T05:37:31.888Z,14.51
2019-05-25T05:40:05.519Z,14.56
2019-05-25T05:42:41.866Z,14.65
2019-05-25T05:45:15.474Z,14.82
2019-05-25T05:47:51.435Z,14.90
2019-05-25T05:50:24.293Z,15.23
2019-05-25T05:53:00.205Z,15.36
2019-05-25T05:55:33.802Z,15.69
2019-05-25T05:58:06.633Z,15.92
2019-05-25T06:00:39.347Z,16.07
2019-05-25T06:03:12.144Z,15.95
2019-05-25T06:05:45.245Z,16.15
2019-05-25T06:08:19.458Z,16.01
2019-05-25T06:10:57.978Z,15.85
2019-05-25T06:13:30.731Z,16.16
2019-05-25T06:16:03.574Z,16.64
2019-05-25T06:18:36.293Z,16.97
2019-05-25T06:21:09.168Z,17.17
2019-05-25T06:23:41.881Z,17.20
2019-05-25T06:26:14.717Z,17.51
2019-05-25T06:28:47.626Z,17.30
2019-05-25T06:31:20.465Z,17.12
2019-05-25T06:33:53.205Z,16.93
2019-05-25T06:36:25.982Z,17.03
2019-05-25T06:38:58.722Z,17.19
2019-05-25T06:41:31.596Z,17.34
2019-05-25T06:44:04.614Z,17.67
2019-05-25T06:46:39.774Z,17.41
2019-05-25T06:49:11.747Z,17.60
2019-05-25T06:51:44.374Z,17.74
2019-05-25T06:54:17.106Z,17.94
2019-05-25T06:56:49.852Z,18.28
2019-05-25T06:59:22.624Z,18.29
2019-05-25T07:01:55.449Z,18.64
2019-05-25T07:04:28.326Z,18.46
2019-05-25T07:07:01.136Z,18.28
2019-05-25T07:09:33.513Z,18.38
2019-05-25T07:12:06.645Z,18.41
2019-05-25T07:14:39.479Z,18.93
2019-05-25T07:17:12.307Z,19.34
2019-05-25T07:19:45.084Z,20.06
2019-05-25T07:22:17.867Z,20.90
2019-05-25T07:24:50.592Z,21.28
2019-05-25T07:27:23.336Z,21.83
2019-05-25T07:29:56.090Z,20.42
2019-05-25T07:32:28.786Z,20.60
2019-05-25T07:35:01.565Z,21.20
2019-05-25T07:37:34.293Z,22.09
2019-05-25T07:40:07.992Z,20.76
2019-05-25T07:42:40.691Z,20.88
2019-05-25T07:45:15.304Z,20.02
2019-05-25T07:47:48.073Z,20.16
2019-05-25T07:50:21.395Z,20.50
2019-05-25T07:52:54.140Z,19.75
2019-05-25T07:55:26.861Z,20.47
2019-05-25T07:58:15.662Z,20.69
2019-05-25T08:00:34.127Z,20.82
2019-05-25T08:03:06.911Z,22.10
2019-05-25T08:05:39.658Z,22.61
2019-05-25T08:08:12.402Z,22.64
2019-05-25T08:10:45.165Z,22.61
2019-05-25T08:13:17.951Z,22.05
2019-05-25T08:15:50.789Z,22.43
2019-05-25T08:18:23.515Z,24.30
2019-05-25T08:20:56.307Z,23.73
2019-05-25T08:23:29.108Z,24.18
2019-05-25T08:26:01.977Z,23.94
2019-05-25T08:28:34.686Z,22.71
2019-05-25T08:31:07.417Z,23.11
2019-05-25T08:33:40.099Z,22.89
2019-05-25T08:36:12.859Z,24.22
2019-05-25T08:38:45.555Z,25.11
2019-05-25T08:41:18.359Z,25.48
2019-05-25T08:43:51.181Z,26.55
2019-05-25T08:46:23.948Z,25.96
2019-05-25T08:48:56.852Z,26.03
2019-05-25T08:51:29.668Z,26.47
2019-05-25T08:54:02.579Z,28.03
2019-05-25T08:56:35.302Z,28.19
2019-05-25T08:59:08.115Z,26.85
2019-05-25T09:01:40.935Z,27.35
2019-05-25T09:04:13.651Z,27.46
2019-05-25T09:06:46.454Z,27.76
2019-05-25T09:09:19.169Z,27.73
2019-05-25T09:11:52.016Z,27.29
2019-05-25T09:14:24.869Z,27.47
2019-05-25T09:16:57.570Z,28.16
2019-05-25T09:19:30.346Z,27.40
2019-05-25T09:22:04.036Z,27.52
2019-05-25T09:24:37.094Z,26.71
2019-05-25T09:27:09.952Z,26.72
2019-05-25T09:29:41.928Z,27.62
2019-05-25T09:32:14.663Z,28.51
2019-05-25T09:34:47.422Z,28.32
2019-05-25T09:37:20.268Z,28.03
2019-05-25T09:39:53.064Z,27.87
2019-05-25T09:42:25.800Z,27.70
2019-05-25T09:44:58.563Z,27.93
2019-05-25T09:47:31.363Z,26.83
2019-05-25T09:50:04.746Z,26.87
2019-05-25T09:52:37.497Z,28.40
2019-05-25T09:55:11.948Z,28.26
2019-05-25T09:57:44.664Z,27.35
2019-05-25T10:00:19.333Z,27.85
2019-05-25T10:02:52.291Z,28.37
2019-05-25T10:05:25.162Z,28.32
2019-05-25T10:07:57.886Z,26.52
2019-05-25T10:10:30.629Z,25.28
2019-05-25T10:13:03.392Z,23.87
2019-05-25T10:15:36.161Z,22.82
2019-05-25T10:18:08.140Z,22.46
2019-05-25T10:20:40.981Z,21.78
2019-05-25T10:23:13.917Z,20.83
2019-05-25T10:25:46.603Z,19.83
2019-05-25T10:28:19.411Z,17.31
2019-05-25T10:30:52.129Z,16.21
2019-05-25T10:33:24.975Z,15.71
2019-05-25T10:35:57.683Z,15.28
2019-05-25T10:38:30.730Z,15.16
2019-05-25T10:41:03.503Z,15.27
2019-05-25T10:43:36.271Z,15.38
2019-05-25T10:46:12.191Z,15.55
2019-05-25T10:48:45.007Z,15.74
2019-05-25T10:51:17.753Z,15.92
2019-05-25T10:53:52.818Z,16.82
2019-05-25T10:56:31.459Z,19.33
2019-05-25T10:59:04.255Z,21.04
2019-05-25T11:01:37.153Z,22.32
2019-05-25T11:04:09.946Z,23.25
2019-05-25T11:06:46.943Z,21.64
2019-05-25T11:09:19.955Z,20.42
2019-05-25T11:11:52.683Z,19.61
2019-05-25T11:14:25.533Z,19.32
2019-05-25T11:16:58.304Z,19.05
2019-05-25T11:19:31.071Z,19.21
2019-05-25T11:22:03.805Z,19.45
2019-05-25T11:24:36.664Z,19.53
2019-05-25T11:27:09.515Z,21.23
2019-05-25T11:29:42.292Z,22.30
2019-05-25T11:32:15.015Z,22.98
2019-05-25T11:34:48.074Z,22.92
2019-05-25T11:37:20.759Z,23.57
2019-05-25T11:39:53.552Z,23.97
2019-05-25T11:42:26.448Z,23.43
2019-05-25T11:44:59.268Z,23.77
2019-05-25T11:47:32.154Z,23.17
2019-05-25T11:50:05.886Z,22.75
2019-05-25T11:52:38.971Z,22.23
2019-05-25T11:55:12.887Z,21.57
2019-05-25T11:57:45.572Z,21.04
2019-05-25T12:00:26.289Z,20.24
2019-05-25T12:02:55.088Z,19.53
2019-05-25T12:05:27.986Z,18.91
2019-05-25T12:08:00.742Z,18.55
2019-05-25T12:10:33.479Z,18.17
2019-05-25T12:13:06.231Z,17.78
2019-05-25T12:15:39.021Z,17.40
2019-05-25T12:18:11.922Z,17.18
2019-05-25T12:20:44.636Z,17.04
2019-05-25T12:23:17.382Z,16.95
2019-05-25T12:25:50.249Z,16.87
2019-05-25T12:28:22.947Z,16.75
2019-05-25T12:30:55.656Z,16.56
2019-05-25T12:33:28.433Z,16.48
2019-05-25T12:36:01.282Z,16.39
2019-05-25T12:38:34.026Z,16.06
2019-05-25T12:41:06.764Z,15.83
2019-05-25T12:43:39.645Z,15.65
2019-05-25T12:46:12.529Z,15.34
2019-05-25T12:48:45.371Z,15.13
2019-05-25T12:51:18.130Z,15.03
2019-05-25T12:53:50.941Z,14.99
2019-05-25T12:56:23.747Z,15.06
2019-05-25T12:58:56.501Z,15.18
2019-05-25T13:01:29.307Z,15.25
2019-05-25T13:04:02.124Z,15.31
2019-05-25T13:06:35.001Z,15.50
2019-05-25T13:09:08.998Z,15.55
2019-05-25T13:11:41.734Z,15.87
2019-05-25T13:14:15.168Z,16.28
2019-05-25T13:16:48.194Z,16.90
2019-05-25T13:19:20.926Z,17.31
2019-05-25T13:21:53.647Z,17.99
2019-05-25T13:24:26.403Z,18.12
2019-05-25T13:26:59.244Z,17.89
2019-05-25T13:29:31.939Z,17.84
2019-05-25T13:32:04.793Z,18.84
2019-05-25T13:34:37.540Z,19.58
2019-05-25T13:37:10.339Z,20.71
2019-05-25T13:39:43.026Z,21.94
2019-05-25T13:42:15.974Z,22.06
2019-05-25T13:44:48.919Z,22.06
2019-05-25T13:47:21.706Z,22.35
2019-05-25T13:49:54.487Z,22.20
2019-05-25T13:52:27.317Z,20.85
2019-05-25T13:55:00.083Z,20.20
2019-05-25T13:57:32.921Z,21.19
2019-05-25T14:00:07.148Z,22.79
2019-05-25T14:02:40.271Z,23.33
2019-05-25T14:05:13.861Z,21.93
2019-05-25T14:07:46.599Z,22.20
2019-05-25T14:10:19.557Z,22.32
2019-05-25T14:12:52.384Z,22.39
2019-05-25T14:15:25.229Z,23.77
2019-05-25T14:17:57.984Z,22.29
2019-05-25T14:20:30.827Z,21.78
2019-05-25T14:23:03.586Z,20.99
2019-05-25T14:25:36.368Z,20.79
2019-05-25T14:28:09.448Z,20.19
2019-05-25T14:30:42.421Z,19.79
2019-05-25T14:33:15.239Z,21.93
2019-05-25T14:35:48.079Z,23.69
2019-05-25T14:38:20.801Z,24.26
2019-05-25T14:40:53.585Z,24.46
2019-05-25T14:43:25.529Z,24.60
2019-05-25T14:45:58.401Z,24.10
2019-05-25T14:48:31.207Z,23.77
2019-05-25T14:51:04.956Z,23.08
2019-05-25T14:53:37.628Z,21.00
2019-05-25T14:56:10.446Z,20.70
2019-05-25T14:58:42.369Z,20.17
2019-05-25T15:01:18.297Z,19.85
2019-05-25T15:03:51.335Z,19.44
2019-05-25T15:06:32.412Z,19.07
2019-05-25T15:09:16.812Z,18.72
2019-05-25T15:11:53.525Z,18.44
2019-05-25T15:14:24.131Z,18.08
2019-05-25T15:16:56.938Z,17.72
2019-05-25T15:19:29.677Z,17.48
2019-05-25T15:22:04.629Z,17.28
2019-05-25T15:24:37.525Z,16.88
2019-05-25T15:27:10.337Z,16.43
2019-05-25T15:29:43.239Z,16.11
2019-05-25T15:32:20.361Z,15.84
2019-05-25T15:34:50.507Z,15.65
2019-05-25T15:37:23.428Z,15.37
2019-05-25T15:39:56.319Z,15.17
2019-05-25T15:42:29.017Z,15.05
2019-05-25T15:45:01.746Z,14.89
2019-05-25T15:47:35.639Z,14.91
2019-05-25T15:50:11.585Z,14.81
2019-05-25T15:52:44.308Z,14.58
2019-05-25T15:55:17.239Z,14.10
2019-05-25T15:57:50.017Z,13.56
2019-05-25T16:00:41.214Z,13.15
2019-05-25T16:03:14.181Z,12.91
2019-05-25T16:05:47.662Z,12.75
2019-05-25T16:08:21.938Z,12.76
2019-05-25T16:10:54.674Z,12.66
2019-05-25T16:13:27.766Z,12.58
2019-05-25T16:16:00.472Z,12.48
2019-05-25T16:18:33.325Z,12.46
2019-05-25T16:21:06.144Z,12.40
2019-05-25T16:23:38.869Z,12.43
2019-05-25T16:26:11.655Z,12.37
2019-05-25T16:28:44.482Z,12.40
2019-05-25T16:31:17.369Z,12.39
2019-05-25T16:33:50.150Z,12.42
2019-05-25T16:36:22.830Z,12.42
2019-05-25T16:38:55.553Z,12.40
2019-05-25T16:41:28.562Z,12.53
2019-05-25T16:44:01.536Z,12.48
2019-05-25T16:46:34.494Z,12.66
2019-05-25T16:49:07.314Z,12.65
2019-05-25T16:51:40.012Z,12.82
2019-05-25T16:54:12.902Z,13.07
2019-05-25T16:56:48.042Z,13.32
2019-05-25T16:59:20.802Z,13.59
2019-05-25T17:01:53.646Z,13.88
2019-05-25T17:04:26.426Z,14.11
2019-05-25T17:06:59.197Z,14.48
2019-05-25T17:09:31.952Z,14.50
2019-05-25T17:12:04.910Z,14.41
2019-05-25T17:14:37.705Z,14.00
2019-05-25T17:17:10.608Z,13.96
2019-05-25T17:19:43.479Z,13.94
2019-05-25T17:22:16.269Z,14.00
2019-05-25T17:24:49.023Z,14.08
2019-05-25T17:27:21.711Z,14.28
2019-05-25T17:29:54.452Z,14.67
2019-05-25T17:32:27.219Z,14.87
2019-05-25T17:35:00.039Z,14.78
2019-05-25T17:37:33.063Z,14.61
2019-05-25T17:40:07.420Z,14.75
2019-05-25T17:42:40.148Z,14.66
2019-05-25T17:45:13.549Z,14.78
2019-05-25T17:47:46.269Z,14.80
2019-05-25T17:50:19.054Z,14.74
2019-05-25T17:52:51.787Z,14.69
2019-05-25T17:55:24.539Z,14.65
2019-05-25T17:57:57.283Z,14.65
2019-05-25T18:00:43.958Z,14.61
2019-05-25T18:03:17.781Z,14.56
2019-05-25T18:05:50.636Z,14.43
2019-05-25T18:08:23.407Z,14.25
2019-05-25T18:10:56.105Z,14.04
2019-05-25T18:13:29.308Z,13.90
2019-05-25T18:16:02.210Z,13.77
2019-05-25T18:18:34.978Z,13.58
2019-05-25T18:21:07.939Z,13.44
2019-05-25T18:23:40.745Z,13.43
2019-05-25T18:26:13.581Z,13.28
2019-05-25T18:28:46.272Z,13.09
2019-05-25T18:31:19.115Z,13.01
2019-05-25T18:33:51.893Z,12.85
2019-05-25T18:36:24.630Z,12.72
2019-05-25T18:38:57.535Z,12.48
2019-05-25T18:41:30.210Z,12.34
2019-05-25T18:44:03.125Z,12.19
2019-05-25T18:46:35.891Z,12.10
2019-05-25T18:49:08.756Z,12.05
2019-05-25T18:51:41.570Z,12.08
2019-05-25T18:54:14.315Z,12.07
2019-05-25T18:56:47.186Z,12.11
2019-05-25T18:59:21.186Z,12.08
2019-05-25T19:01:53.898Z,12.01
2019-05-25T19:04:43.182Z,12.02
2019-05-25T19:07:01.123Z,12.01
2019-05-25T19:09:33.890Z,12.05
2019-05-25T19:12:06.924Z,12.15
2019-05-25T19:14:39.906Z,12.13
2019-05-25T19:17:14.430Z,12.11
2019-05-25T19:19:47.305Z,12.06
2019-05-25T19:22:19.466Z,12.02
2019-05-25T19:24:52.331Z,11.98
2019-05-25T19:27:24.394Z,11.94
2019-05-25T19:29:57.155Z,11.92
2019-05-25T19:32:29.915Z,11.94
2019-05-25T19:35:02.673Z,12.01
2019-05-25T19:37:35.443Z,11.99
2019-05-25T19:40:11.366Z,12.00
2019-05-25T19:42:44.114Z,12.06
2019-05-25T19:45:17.300Z,12.05
2019-05-25T19:47:50.183Z,12.07
2019-05-25T19:50:23.408Z,12.07
2019-05-25T19:52:56.266Z,12.08
2019-05-25T19:55:29.120Z,12.19
2019-05-25T19:58:01.889Z,12.03
2019-05-25T20:00:34.812Z,11.89
2019-05-25T20:03:07.571Z,11.87
2019-05-25T20:05:40.374Z,11.76
2019-05-25T20:08:13.132Z,11.72
2019-05-25T20:10:45.856Z,11.66
2019-05-25T20:13:18.767Z,11.65
2019-05-25T20:15:51.564Z,11.63
2019-05-25T20:18:24.295Z,11.64
2019-05-25T20:20:57.053Z,11.66
2019-05-25T20:23:29.847Z,11.63
2019-05-25T20:26:03.724Z,11.63
2019-05-25T20:28:36.407Z,11.60
2019-05-25T20:31:09.212Z,11.56
2019-05-25T20:33:41.881Z,11.54
2019-05-25T20:36:14.614Z,11.55
2019-05-25T20:38:47.498Z,11.57
2019-05-25T20:41:20.257Z,11.57
2019-05-25T20:43:53.126Z,11.60
2019-05-25T20:46:25.941Z,11.65
2019-05-25T20:48:58.830Z,11.65
2019-05-25T20:51:31.637Z,11.67
2019-05-25T20:54:04.429Z,11.73
2019-05-25T20:56:37.171Z,11.63
2019-05-25T20:59:10.109Z,11.61
2019-05-25T21:01:43.263Z,11.56
2019-05-25T21:04:16.089Z,11.55
2019-05-25T21:06:48.837Z,11.54
2019-05-25T21:09:21.578Z,11.50
2019-05-25T21:11:56.070Z,11.48
2019-05-25T21:14:28.725Z,11.46
2019-05-25T21:17:01.503Z,11.47
2019-05-25T21:19:34.295Z,11.44
2019-05-25T21:22:07.455Z,11.47
2019-05-25T21:24:40.240Z,11.51
2019-05-25T21:27:12.955Z,11.53
2019-05-25T21:29:45.710Z,11.56
2019-05-25T21:32:18.426Z,11.50
2019-05-25T21:34:51.181Z,11.45
2019-05-25T21:37:23.914Z,11.42
2019-05-25T21:39:56.754Z,11.37
2019-05-25T21:42:29.572Z,11.31
2019-05-25T21:45:02.394Z,11.26
2019-05-25T21:47:35.117Z,11.21
2019-05-25T21:50:09.180Z,11.18
2019-05-25T21:52:42.075Z,11.18
2019-05-25T21:55:15.060Z,11.17
2019-05-25T21:57:47.798Z,11.12
2019-05-25T22:00:23.992Z,11.03
2019-05-25T22:02:56.711Z,10.96
2019-05-25T22:05:30.962Z,10.89
2019-05-25T22:08:04.101Z,10.87
2019-05-25T22:10:36.830Z,10.91
2019-05-25T22:13:23.774Z,10.93
2019-05-25T22:15:44.055Z,10.95
2019-05-25T22:18:16.771Z,10.91
2019-05-25T22:20:49.791Z,10.86
2019-05-25T22:23:22.567Z,10.93
2019-05-25T22:25:55.273Z,10.84
2019-05-25T22:28:41.930Z,10.78
2019-05-25T22:31:02.561Z,10.74
2019-05-25T22:33:35.296Z,10.72
2019-05-25T22:36:08.366Z,10.62
2019-05-25T22:38:41.069Z,10.47
2019-05-25T22:41:13.779Z,10.37
2019-05-25T22:43:46.474Z,10.30
2019-05-25T22:46:19.293Z,10.21
2019-05-25T22:48:52.186Z,10.15
2019-05-25T22:51:24.909Z,10.07
2019-05-25T22:53:59.765Z,9.94
2019-05-25T22:56:32.738Z,9.85
2019-05-25T22:59:05.580Z,9.77
2019-05-25T23:01:38.287Z,9.68
2019-05-25T23:04:11.064Z,9.62
2019-05-25T23:06:57.118Z,9.62
2019-05-25T23:09:18.236Z,9.53
2019-05-25T23:11:51.173Z,9.53
2019-05-25T23:14:23.751Z,9.62
2019-05-25T23:16:56.483Z,9.71
2019-05-25T23:19:29.343Z,9.75
2019-05-25T23:22:02.172Z,9.83
2019-05-25T23:24:34.958Z,9.87
2019-05-25T23:27:07.772Z,9.90
2019-05-25T23:29:40.881Z,9.95
2019-05-25T23:32:13.651Z,9.92
2019-05-25T23:34:46.388Z,9.93
2019-05-25T23:37:19.111Z,9.92
2019-05-25T23:39:51.752Z,9.93
2019-05-25T23:42:24.475Z,9.98
2019-05-25T23:44:57.238Z,9.91
2019-05-25T23:47:29.873Z,9.84
2019-05-25T23:50:02.602Z,9.84
2019-05-25T23:52:35.525Z,9.77
2019-05-25T23:55:08.680Z,9.71
2019-05-25T23:57:41.502Z,9.72
